Time;durP1;ratioP1;P1;durP2;ratioP2;P2;SDS_P1;SDS_P2;PMS_P1;PMS_P2;Temp;Humidity;BMP_temperature;BMP_pressure;BME280_temperature;BME280_humidity;BME280_pressure;Samples;Min_cycle;Max_cycle;Signal;HPM_P1;HPM_P2
2022/06/17 00:00:14;;;;;;;10.52;7.68;;;17.60;90.50;;;;;;5136192;28;20174;-77
2022/06/17 00:02:46;;;;;;;11.13;8.02;;;17.60;91.40;;;;;;5137319;28;20054;-77
2022/06/17 00:05:19;;;;;;;11.38;7.85;;;17.50;91.60;;;;;;5135443;28;20051;-77
2022/06/17 00:07:51;;;;;;;13.05;7.78;;;17.50;91.50;;;;;;5136411;28;20054;-78
2022/06/17 00:10:26;;;;;;;11.38;7.65;;;17.50;91.60;;;;;;5134203;28;20058;-78
2022/06/17 00:12:58;;;;;;;10.40;7.93;;;17.40;92.30;;;;;;5141938;28;20262;-77
2022/06/17 00:15:31;;;;;;;11.60;7.57;;;17.40;92.80;;;;;;5135224;28;20065;-77
2022/06/17 00:18:03;;;;;;;11.90;7.97;;;17.30;92.70;;;;;;5152815;28;20482;-76
2022/06/17 00:20:35;;;;;;;8.23;7.30;;;17.20;93.00;;;;;;5136797;28;20049;-77
2022/06/17 00:23:18;;;;;;;11.73;8.02;;;17.30;93.20;;;;;;5136232;28;20047;-77
2022/06/17 00:25:50;;;;;;;10.48;8.20;;;17.30;94.30;;;;;;5151242;28;20137;-77
2022/06/17 00:28:23;;;;;;;11.60;8.27;;;17.20;93.90;;;;;;5152116;28;20581;-80
2022/06/17 00:30:56;;;;;;;12.05;8.18;;;17.30;93.20;;;;;;5137660;28;20070;-76
2022/06/17 00:33:28;;;;;;;11.50;7.72;;;17.40;92.70;;;;;;5149447;28;20050;-77
2022/06/17 00:36:01;;;;;;;11.48;8.13;;;17.30;93.60;;;;;;5150431;28;20055;-76
2022/06/17 00:38:35;;;;;;;13.73;8.15;;;17.30;93.80;;;;;;5139614;28;20081;-78
2022/06/17 00:41:15;;;;;;;11.63;8.30;;;17.20;93.90;;;;;;5119192;28;20471;-76
2022/06/17 00:43:48;;;;;;;12.40;8.40;;;17.20;94.80;;;;;;5119593;28;20713;-77
2022/06/17 00:46:20;;;;;;;12.80;8.73;;;17.00;95.10;;;;;;5126433;28;20063;-76
2022/06/17 00:49:31;;;;;;;11.70;7.60;;;16.90;95.50;;;;;;5134376;28;20051;-78
2022/06/17 00:52:06;;;;;;;13.52;8.60;;;16.80;97.20;;;;;;5138923;28;20414;-76
2022/06/17 00:54:47;;;;;;;12.48;7.93;;;16.60;97.40;;;;;;5152240;28;20050;-76
2022/06/17 00:57:21;;;;;;;11.13;8.20;;;16.60;98.20;;;;;;5136565;28;20677;-76
2022/06/17 01:00:09;;;;;;;10.02;8.23;;;16.60;98.10;;;;;;5151251;28;20146;-77
2022/06/17 01:02:52;;;;;;;11.60;8.65;;;16.50;99.40;;;;;;5136606;28;20051;-76
2022/06/17 01:05:44;;;;;;;9.90;7.95;;;16.40;99.80;;;;;;5149916;28;20043;-77
2022/06/17 01:09:57;;;;;;;12.35;9.43;;;16.30;99.90;;;;;;5150359;28;20047;-76
2022/06/17 01:11:14;;;;;;;9.25;8.27;;;16.30;99.90;;;;;;5134679;28;20518;-76
2022/06/17 01:13:49;;;;;;;9.90;8.45;;;16.20;99.90;;;;;;5119191;28;20047;-77
2022/06/17 01:16:29;;;;;;;9.55;8.52;;;16.20;99.90;;;;;;5118400;28;20055;-77
2022/06/17 01:19:32;;;;;;;11.38;8.05;;;16.10;99.90;;;;;;5119367;28;20050;-76
2022/06/17 01:22:25;;;;;;;10.60;8.10;;;16.10;99.90;;;;;;5133486;28;20053;-78
2022/06/17 01:25:17;;;;;;;11.02;9.32;;;16.10;99.90;;;;;;5133352;28;20050;-76
2022/06/17 01:27:55;;;;;;;9.93;8.68;;;16.00;99.90;;;;;;5134805;28;20042;-77
2022/06/17 01:30:44;;;;;;;10.75;8.55;;;16.00;99.90;;;;;;5127732;28;20062;-77
2022/06/17 01:33:29;;;;;;;10.40;8.30;;;16.00;99.90;;;;;;5134902;28;20055;-76
2022/06/17 01:36:20;;;;;;;13.00;9.20;;;16.10;99.90;;;;;;5151240;28;20055;-75
2022/06/17 01:38:56;;;;;;;12.75;9.05;;;16.10;99.90;;;;;;5150261;28;20552;-76
2022/06/17 01:41:31;;;;;;;12.05;8.88;;;15.90;99.90;;;;;;5153273;28;20506;-75
2022/06/17 01:44:25;;;;;;;11.82;8.52;;;15.80;99.90;;;;;;5155122;28;20081;-76
2022/06/17 01:46:58;;;;;;;;;;;15.90;99.90;;;;;;5140163;28;20778;-77
2022/06/17 01:49:39;;;;;;;9.48;8.27;;;15.80;99.90;;;;;;5140431;28;19922;-77
2022/06/17 01:52:16;;;;;;;12.95;8.48;;;15.90;99.90;;;;;;5155040;28;20118;-75
2022/06/17 01:55:13;;;;;;;12.98;8.82;;;15.80;99.90;;;;;;5128583;28;20062;-77
2022/06/17 01:57:53;;;;;;;10.18;8.13;;;15.70;99.90;;;;;;5123530;28;20059;-76
2022/06/17 02:00:29;;;;;;;11.23;8.20;;;15.70;99.90;;;;;;5139019;28;20459;-76
2022/06/17 02:03:04;;;;;;;11.27;8.63;;;15.70;99.90;;;;;;5143087;28;20137;-76
2022/06/17 02:05:46;;;;;;;11.88;9.13;;;15.70;99.90;;;;;;5140037;28;20046;-75
2022/06/17 02:08:19;;;;;;;9.68;8.70;;;15.70;99.90;;;;;;5142086;28;20046;-79
2022/06/17 02:10:52;;;;;;;13.10;8.27;;;15.70;99.90;;;;;;5156539;28;20038;-79
2022/06/17 02:13:24;;;;;;;11.23;8.95;;;15.70;99.90;;;;;;5157467;28;20434;-77
2022/06/17 02:16:19;;;;;;;14.23;8.98;;;15.60;99.90;;;;;;5139710;28;20425;-76
2022/06/17 02:19:03;;;;;;;11.70;8.50;;;15.60;99.90;;;;;;5133149;28;20364;-76
2022/06/17 02:21:44;;;;;;;11.40;8.70;;;15.60;99.90;;;;;;5138947;28;20049;-76
2022/06/17 02:24:18;;;;;;;12.65;9.30;;;15.80;99.90;;;;;;5153675;28;20082;-77
2022/06/17 02:26:50;;;;;;;;;;;15.70;99.90;;;;;;5143447;28;20062;-76
2022/06/17 02:29:23;;;;;;;14.32;8.80;;;15.70;99.90;;;;;;5158113;28;19926;-79
2022/06/17 02:31:58;;;;;;;10.77;8.50;;;15.70;99.90;;;;;;5159102;28;20054;-76
2022/06/17 02:34:30;;;;;;;13.70;8.10;;;15.80;99.90;;;;;;5138456;28;20574;-75
2022/06/17 02:37:09;;;;;;;12.65;8.48;;;15.80;99.90;;;;;;5141506;28;20053;-76
2022/06/17 02:39:45;;;;;;;11.73;8.90;;;15.80;99.90;;;;;;5142436;28;20502;-76
2022/06/17 02:42:25;;;;;;;12.18;7.70;;;15.70;99.90;;;;;;5138315;28;20043;-76
2022/06/17 02:45:21;;;;;;;10.75;8.95;;;15.70;99.90;;;;;;5152610;28;20061;-78
2022/06/17 02:47:54;;;;;;;11.95;8.75;;;15.60;99.90;;;;;;5153130;28;20061;-77
2022/06/17 02:50:28;;;;;;;12.43;7.78;;;15.70;99.90;;;;;;5135247;28;20143;-77
2022/06/17 02:53:01;;;;;;;10.13;9.02;;;15.60;99.90;;;;;;5154954;28;21178;-77
2022/06/17 02:55:38;;;;;;;13.45;8.88;;;15.70;99.90;;;;;;5156544;28;20156;-77
2022/06/17 02:58:21;;;;;;;9.82;8.48;;;15.70;99.90;;;;;;5136902;28;20043;-78
2022/06/17 03:00:53;;;;;;;10.40;8.68;;;15.60;99.90;;;;;;5136373;28;20051;-78
2022/06/17 03:03:27;;;;;;;12.23;8.57;;;15.40;99.90;;;;;;5133344;28;20061;-77
2022/06/17 03:06:00;;;;;;;13.00;8.35;;;15.40;99.90;;;;;;5147263;28;20042;-77
2022/06/17 03:08:36;;;;;;;10.85;8.75;;;15.40;99.90;;;;;;5150185;28;20749;-77
2022/06/17 03:11:10;;;;;;;10.27;8.38;;;15.30;99.90;;;;;;5145424;28;20118;-77
2022/06/17 03:14:06;;;;;;;14.52;9.85;;;15.30;99.90;;;;;;5149181;28;20054;-76
2022/06/17 03:16:41;;;;;;;9.80;8.60;;;15.40;99.90;;;;;;5132490;28;20069;-77
2022/06/17 03:19:14;;;;;;;13.38;8.68;;;15.30;99.90;;;;;;5128492;28;21011;-76
2022/06/17 03:21:47;;;;;;;11.98;8.20;;;15.20;99.90;;;;;;5118897;28;20054;-76
2022/06/17 03:24:29;;;;;;;9.77;8.25;;;15.20;99.90;;;;;;5135218;28;20503;-76
2022/06/17 03:27:07;;;;;;;8.90;8.00;;;15.10;99.90;;;;;;5152383;28;20053;-77
2022/06/17 03:29:44;;;;;;;10.27;8.02;;;15.10;99.90;;;;;;5134974;28;20533;-77
2022/06/17 03:32:20;;;;;;;8.98;7.97;;;15.10;99.90;;;;;;5134088;28;20051;-77
2022/06/17 03:34:55;;;;;;;10.25;8.80;;;15.10;99.90;;;;;;5145842;28;20141;-77
2022/06/17 03:37:50;;;;;;;13.25;9.32;;;15.00;99.90;;;;;;5149929;28;20038;-76
2022/06/17 03:40:29;;;;;;;;;;;14.90;99.90;;;;;;5150934;28;20050;-76
2022/06/17 03:43:10;;;;;;;10.05;8.40;;;14.80;99.90;;;;;;5150573;28;19922;-77
2022/06/17 03:45:58;;;;;;;10.63;8.60;;;14.90;99.90;;;;;;5118162;28;20050;-77
2022/06/17 03:48:39;;;;;;;12.57;9.43;;;14.90;99.90;;;;;;5151833;28;20420;-77
2022/06/17 03:51:18;;;;;;;12.60;9.57;;;14.90;99.90;;;;;;5135135;28;20050;-76
2022/06/17 03:53:51;;;;;;;13.32;9.93;;;14.90;99.90;;;;;;5134694;28;20057;-77
2022/06/17 03:56:28;;;;;;;13.27;9.48;;;14.90;99.90;;;;;;5134738;28;20557;-77
2022/06/17 03:59:07;;;;;;;10.98;8.50;;;14.70;99.90;;;;;;5127698;28;20051;-80
2022/06/17 04:01:47;;;;;;;13.15;9.50;;;14.80;99.90;;;;;;5135191;28;20561;-77
2022/06/17 04:04:25;;;;;;;12.05;9.10;;;14.90;99.90;;;;;;5135752;28;20070;-77
2022/06/17 04:06:58;;;;;;;12.90;8.93;;;14.90;99.90;;;;;;5134685;28;20047;-76
2022/06/17 04:09:37;;;;;;;14.60;9.60;;;14.90;99.90;;;;;;5151173;28;20050;-77
2022/06/17 04:12:13;;;;;;;11.70;9.45;;;14.90;99.90;;;;;;5153868;28;20058;-78
2022/06/17 04:15:20;;;;;;;13.57;9.45;;;15.00;99.90;;;;;;5134989;28;20410;-77
2022/06/17 04:17:53;;;;;;;13.38;10.88;;;15.10;99.90;;;;;;5119710;28;20050;-77
2022/06/17 04:20:42;;;;;;;13.88;9.77;;;15.10;99.90;;;;;;5133723;28;20632;-77
2022/06/17 04:23:27;;;;;;;13.18;9.20;;;15.20;99.90;;;;;;5136455;28;20061;-77
2022/06/17 04:26:26;;;;;;;11.98;8.80;;;15.30;99.90;;;;;;5137734;28;20047;-77
2022/06/17 04:29:07;;;;;;;12.15;8.15;;;15.50;99.90;;;;;;5136692;28;20042;-76
2022/06/17 04:31:43;;;;;;;12.45;8.57;;;15.60;99.90;;;;;;5136404;28;20061;-78
2022/06/17 04:34:21;;;;;;;13.13;8.18;;;15.60;99.90;;;;;;5146449;28;20058;-77
2022/06/17 04:37:04;;;;;;;11.02;8.63;;;15.70;99.90;;;;;;5151438;28;20524;-78
2022/06/17 04:39:53;;;;;;;12.98;8.50;;;15.80;99.90;;;;;;5130624;28;20061;-78
2022/06/17 04:42:43;;;;;;;12.80;8.50;;;15.90;99.90;;;;;;5135838;28;20046;-77
2022/06/17 04:45:24;;;;;;;13.50;9.38;;;16.00;99.90;;;;;;5128827;28;20047;-76
2022/06/17 04:47:59;;;;;;;14.18;9.02;;;16.10;99.90;;;;;;5151550;28;20900;-77
2022/06/17 04:50:33;;;;;;;11.82;8.82;;;16.20;99.90;;;;;;5137131;28;20074;-77
2022/06/17 04:53:07;;;;;;;13.45;8.98;;;16.30;99.90;;;;;;5136329;28;20785;-76
2022/06/17 04:55:47;;;;;;;13.07;9.75;;;16.40;99.90;;;;;;5125497;28;20054;-77
2022/06/17 04:58:35;;;;;;;12.27;8.98;;;16.50;99.90;;;;;;5140965;28;20434;-77
2022/06/17 05:01:17;;;;;;;13.45;8.98;;;16.50;99.90;;;;;;5137908;28;20093;-78
2022/06/17 05:04:05;;;;;;;10.82;8.63;;;16.60;99.90;;;;;;5149450;28;20058;-76
2022/06/17 05:06:57;;;;;;;10.73;8.82;;;16.60;99.90;;;;;;5139174;28;20062;-78
2022/06/17 05:09:45;;;;;;;14.82;8.57;;;16.70;99.90;;;;;;5119337;28;20055;-77
2022/06/17 05:12:42;;;;;;;14.30;8.52;;;16.90;99.90;;;;;;5137120;28;20054;-76
2022/06/17 05:15:20;;;;;;;12.02;7.30;;;17.00;99.90;;;;;;5153841;28;20058;-78
2022/06/17 05:17:54;;;;;;;8.90;7.25;;;17.20;99.90;;;;;;5121634;28;20065;-76
2022/06/17 05:20:27;;;;;;;11.25;7.95;;;17.30;99.90;;;;;;5138783;28;20051;-77
2022/06/17 05:23:06;;;;;;;10.07;8.30;;;17.40;99.10;;;;;;5141914;28;20737;-77
2022/06/17 05:25:47;;;;;;;15.57;8.43;;;17.50;97.10;;;;;;5156423;28;20050;-78
2022/06/17 05:28:21;;;;;;;12.48;7.95;;;17.60;95.60;;;;;;5140133;28;20042;-77
2022/06/17 05:31:00;;;;;;;12.73;7.85;;;17.70;95.50;;;;;;5141735;28;20069;-78
2022/06/17 05:33:48;;;;;;;11.57;7.25;;;17.80;94.10;;;;;;5128237;28;20046;-77
2022/06/17 05:36:21;;;;;;;8.95;7.22;;;17.90;93.20;;;;;;5123468;28;20483;-77
2022/06/17 05:38:55;;;;;;;12.10;7.43;;;18.10;93.20;;;;;;5158072;28;20050;-79
2022/06/17 05:41:27;;;;;;;11.52;6.63;;;18.20;91.90;;;;;;5157449;28;20577;-76
2022/06/17 05:44:01;;;;;;;;;;;18.30;91.60;;;;;;5139845;28;20051;-78
2022/06/17 05:46:47;;;;;;;10.13;6.53;;;18.40;91.50;;;;;;5141781;28;19965;-77
2022/06/17 05:49:40;;;;;;;9.73;7.03;;;18.50;90.30;;;;;;5143700;28;20042;-77
2022/06/17 05:52:55;;;;;;;;;;;18.60;90.40;;;;;;5143128;28;20286;-76
2022/06/17 05:55:46;;;;;;;10.45;6.30;;;18.70;88.40;;;;;;5142074;28;19975;-78
2022/06/17 05:58:18;;;;;;;11.23;7.15;;;18.80;88.30;;;;;;5157664;28;20046;-78
2022/06/17 06:00:53;;;;;;;12.20;7.38;;;18.90;87.00;;;;;;5157199;28;20055;-77
2022/06/17 06:03:27;;;;;;;10.20;6.70;;;19.00;83.80;;;;;;5139967;28;20051;-76
2022/06/17 06:06:06;;;;;;;8.60;6.35;;;19.20;83.50;;;;;;5130648;28;20051;-78
2022/06/17 06:08:39;;;;;;;9.63;6.70;;;19.30;82.40;;;;;;5124337;28;20446;-76
2022/06/17 06:11:11;;;;;;;7.32;5.82;;;19.30;81.40;;;;;;5142173;28;20051;-76
2022/06/17 06:13:47;;;;;;;7.20;5.95;;;19.40;82.20;;;;;;5139853;28;20066;-77
2022/06/17 06:16:21;;;;;;;10.80;6.60;;;19.40;81.70;;;;;;5156430;28;20035;-76
2022/06/17 06:18:57;;;;;;;8.75;6.18;;;19.50;80.10;;;;;;5133957;28;20070;-77
2022/06/17 06:21:32;;;;;;;11.25;6.45;;;19.50;78.40;;;;;;5142004;28;20061;-76
2022/06/17 06:24:05;;;;;;;10.70;6.28;;;19.70;78.00;;;;;;5142145;28;20055;-76
2022/06/17 06:26:40;;;;;;;;;;;19.70;79.10;;;;;;5156960;28;20047;-76
2022/06/17 06:29:36;;;;;;;14.65;6.68;;;19.80;80.00;;;;;;5146263;28;19930;-76
2022/06/17 06:32:10;;;;;;;10.90;6.22;;;19.80;78.70;;;;;;5158044;28;20046;-77
2022/06/17 06:35:04;;;;;;;8.98;5.15;;;19.80;78.10;;;;;;5133682;28;20055;-75
2022/06/17 06:37:37;;;;;;;12.45;6.78;;;19.80;77.50;;;;;;5154816;28;20054;-75
2022/06/17 06:40:10;;;;;;;8.68;6.18;;;19.90;76.90;;;;;;5141889;28;20051;-77
2022/06/17 06:42:45;;;;;;;12.23;6.13;;;19.80;74.50;;;;;;5140352;28;20050;-77
2022/06/17 06:45:52;;;;;;;11.63;6.30;;;19.70;74.10;;;;;;5104668;28;20525;-76
2022/06/17 06:48:26;;;;;;;7.35;6.18;;;19.80;74.30;;;;;;5145021;28;20050;-76
2022/06/17 06:50:59;;;;;;;9.27;6.00;;;19.80;75.20;;;;;;5157997;28;20038;-76
2022/06/17 06:53:31;;;;;;;6.07;5.10;;;19.90;75.10;;;;;;5138502;28;20447;-79
2022/06/17 06:56:07;;;;;;;10.57;6.15;;;19.90;74.00;;;;;;5124655;28;20053;-76
2022/06/17 06:58:41;;;;;;;7.68;5.90;;;20.00;74.00;;;;;;5143127;28;20156;-77
2022/06/17 07:01:13;;;;;;;7.47;6.22;;;20.00;73.10;;;;;;5141186;28;20042;-76
2022/06/17 07:03:46;;;;;;;16.00;5.97;;;20.10;72.70;;;;;;5139245;28;20050;-78
2022/06/17 07:06:20;;;;;;;10.13;5.85;;;20.20;72.50;;;;;;5157385;28;20050;-79
2022/06/17 07:08:54;;;;;;;12.38;6.25;;;20.30;72.40;;;;;;5143780;28;20051;-78
2022/06/17 07:11:26;;;;;;;6.38;5.45;;;20.50;73.00;;;;;;5143842;28;20058;-77
2022/06/17 07:13:59;;;;;;;14.95;6.28;;;20.50;72.30;;;;;;5140896;28;20520;-76
2022/06/17 07:16:31;;;;;;;12.45;6.57;;;20.60;71.90;;;;;;5140710;28;20046;-76
2022/06/17 07:19:07;;;;;;;8.35;6.00;;;20.70;71.60;;;;;;5143048;28;20050;-80
2022/06/17 07:21:39;;;;;;;9.30;6.43;;;20.70;71.20;;;;;;5140025;28;20503;-76
2022/06/17 07:24:13;;;;;;;11.18;5.95;;;20.60;70.70;;;;;;5142127;28;20039;-78
2022/06/17 07:26:45;;;;;;;10.43;5.88;;;20.70;71.60;;;;;;5160148;28;20050;-77
2022/06/17 07:29:18;;;;;;;10.43;6.55;;;20.70;71.10;;;;;;5144763;28;20743;-76
2022/06/17 07:31:50;;;;;;;8.15;5.70;;;20.90;70.30;;;;;;5144195;28;20548;-76
2022/06/17 07:34:22;;;;;;;12.13;6.45;;;20.90;70.40;;;;;;5142268;28;20046;-76
2022/06/17 07:39:54;;;;;;;14.45;6.55;;;21.10;70.40;;;;;;5156688;28;20061;-77
2022/06/17 07:42:37;;;;;;;8.30;6.00;;;21.30;71.30;;;;;;5126376;28;20042;-80
2022/06/17 07:45:16;;;;;;;9.93;6.13;;;21.50;67.90;;;;;;5160472;28;20057;-76
2022/06/17 07:47:49;;;;;;;8.25;5.93;;;21.60;69.10;;;;;;5143744;28;20069;-77
2022/06/17 07:50:30;;;;;;;10.80;5.93;;;21.70;68.00;;;;;;5132205;28;20050;-76
2022/06/17 07:53:02;;;;;;;11.15;5.90;;;21.70;69.00;;;;;;5148420;28;20061;-77
2022/06/17 07:55:34;;;;;;;10.02;6.43;;;21.90;69.40;;;;;;5159336;28;20046;-76
2022/06/17 07:58:09;;;;;;;11.90;5.43;;;21.90;67.30;;;;;;5140365;28;20050;-78
2022/06/17 08:00:44;;;;;;;12.50;6.03;;;21.90;67.90;;;;;;5142636;28;20055;-76
2022/06/17 08:03:18;;;;;;;14.27;5.38;;;22.10;68.40;;;;;;5143394;28;20042;-76
2022/06/17 08:05:53;;;;;;;7.20;5.50;;;22.20;66.30;;;;;;5140092;28;20050;-76
2022/06/17 08:08:29;;;;;;;8.20;5.15;;;22.20;67.70;;;;;;5143663;28;20045;-77
2022/06/17 08:11:02;;;;;;;12.10;5.57;;;22.40;65.80;;;;;;5138967;28;20042;-76
2022/06/17 08:13:35;;;;;;;9.40;5.47;;;22.40;66.20;;;;;;5139875;28;20051;-77
2022/06/17 08:16:11;;;;;;;10.38;6.00;;;22.40;65.90;;;;;;5153065;28;20065;-76
2022/06/17 08:18:44;;;;;;;6.38;5.57;;;22.60;65.60;;;;;;5139469;28;20553;-76
2022/06/17 08:21:16;;;;;;;12.80;6.47;;;22.70;65.30;;;;;;5154221;28;20042;-79
2022/06/17 08:24:09;;;;;;;8.20;5.32;;;22.70;64.20;;;;;;5138177;28;20382;-76
2022/06/17 08:26:41;;;;;;;9.95;5.43;;;22.80;65.20;;;;;;5139510;28;20065;-77
2022/06/17 08:29:14;;;;;;;9.82;5.43;;;22.90;66.20;;;;;;5138335;28;20560;-77
2022/06/17 08:34:57;;;;;;;10.00;5.43;;;22.90;63.80;;;;;;5140141;28;20077;-76
2022/06/17 08:37:31;;;;;;;9.43;5.67;;;22.80;62.20;;;;;;5136005;28;20101;-78
2022/06/17 08:40:38;;;;;;;8.38;5.32;;;22.90;62.40;;;;;;5140109;28;20046;-76
2022/06/17 08:43:38;;;;;;;8.45;4.85;;;23.10;62.50;;;;;;5145628;28;20066;-76
2022/06/17 08:46:36;;;;;;;11.20;4.88;;;23.10;60.80;;;;;;5155922;28;20506;-77
2022/06/17 08:49:33;;;;;;;9.10;4.93;;;23.30;60.20;;;;;;5152584;28;20043;-77
2022/06/17 08:52:45;;;;;;;7.75;4.47;;;23.30;59.30;;;;;;5140905;28;20505;-76
2022/06/17 08:56:10;;;;;;;9.02;4.88;;;23.20;58.70;;;;;;5137183;28;20062;-77
2022/06/17 08:59:13;;;;;;;9.50;4.75;;;23.30;60.00;;;;;;5093496;28;20057;-76
2022/06/17 09:01:54;;;;;;;8.48;4.35;;;23.60;60.90;;;;;;5139068;28;20054;-77
2022/06/17 09:04:43;;;;;;;9.35;4.15;;;23.60;58.10;;;;;;5137587;28;20077;-77
2022/06/17 09:07:53;;;;;;;5.03;3.63;;;23.70;58.30;;;;;;5137030;28;20054;-77
2022/06/17 09:10:53;;;;;;;7.22;4.05;;;23.70;53.90;;;;;;5143601;28;20051;-78
2022/06/17 09:14:01;;;;;;;6.40;3.60;;;23.90;55.50;;;;;;5146428;28;20047;-75
2022/06/17 09:17:00;;;;;;;4.35;3.45;;;23.90;54.50;;;;;;5148726;28;20051;-76
2022/06/17 09:19:38;;;;;;;8.27;4.07;;;24.00;54.10;;;;;;5150864;28;20046;-78
2022/06/17 09:22:19;;;;;;;6.40;3.20;;;24.00;55.10;;;;;;5142464;28;20045;-77
2022/06/17 09:24:54;;;;;;;7.20;3.10;;;24.00;54.00;;;;;;5141614;28;20042;-75
2022/06/17 09:27:32;;;;;;;4.13;2.72;;;24.20;55.10;;;;;;5139420;28;20511;-76
2022/06/17 09:30:17;;;;;;;7.53;3.63;;;24.30;53.50;;;;;;5154681;28;20897;-77
2022/06/17 09:32:59;;;;;;;7.30;3.25;;;24.20;53.90;;;;;;5139892;28;20046;-76
2022/06/17 09:36:03;;;;;;;6.25;3.50;;;24.10;53.00;;;;;;5139357;28;20047;-77
2022/06/17 09:38:49;;;;;;;5.65;3.28;;;24.20;53.00;;;;;;5140856;28;20085;-77
2022/06/17 09:41:42;;;;;;;5.28;3.00;;;24.30;55.00;;;;;;5140790;28;20391;-80
2022/06/17 09:44:22;;;;;;;4.82;3.15;;;24.40;54.50;;;;;;5140949;28;20039;-77
2022/06/17 09:47:07;;;;;;;5.30;3.58;;;24.40;53.30;;;;;;5143513;28;20046;-79
2022/06/17 09:49:52;;;;;;;4.90;3.15;;;24.30;54.00;;;;;;5142800;28;20052;-77
2022/06/17 09:52:33;;;;;;;7.55;3.67;;;24.40;55.60;;;;;;5144469;28;20047;-78
2022/06/17 09:55:37;;;;;;;5.82;4.05;;;24.50;53.60;;;;;;5158296;28;20053;-76
2022/06/17 09:58:25;;;;;;;7.60;3.80;;;24.50;53.90;;;;;;5133883;28;20057;-75
2022/06/17 10:00:58;;;;;;;4.75;3.13;;;24.50;53.60;;;;;;5142834;28;20066;-80
2022/06/17 10:03:34;;;;;;;7.00;3.70;;;24.60;54.60;;;;;;5138946;28;20055;-78
2022/06/17 10:06:19;;;;;;;11.07;3.97;;;24.60;54.40;;;;;;5159679;28;20097;-77
2022/06/17 10:08:58;;;;;;;5.30;3.80;;;24.70;56.10;;;;;;5147514;28;20497;-78
2022/06/17 10:11:39;;;;;;;5.60;3.92;;;24.60;51.60;;;;;;5149317;28;20496;-77
2022/06/17 10:14:49;;;;;;;6.15;3.72;;;24.60;54.90;;;;;;5158560;28;20524;-75
2022/06/17 10:20:31;;;;;;;9.23;4.03;;;24.90;54.70;;;;;;5144233;28;20047;-77
2022/06/17 10:23:20;;;;;;;7.43;4.53;;;25.00;53.40;;;;;;5143961;28;20043;-77
2022/06/17 10:26:08;;;;;;;7.93;3.70;;;25.00;51.90;;;;;;5143358;28;20047;-77
2022/06/17 10:28:46;;;;;;;4.63;4.00;;;25.20;53.00;;;;;;5142279;28;20053;-76
2022/06/17 10:31:30;;;;;;;6.82;3.80;;;25.50;53.40;;;;;;5130808;28;20078;-78
2022/06/17 10:34:11;;;;;;;6.97;3.88;;;25.80;54.00;;;;;;5141352;28;20114;-76
2022/06/17 10:36:46;;;;;;;6.45;3.88;;;25.80;51.60;;;;;;5144019;28;20070;-76
2022/06/17 10:39:21;;;;;;;8.13;3.80;;;25.90;52.60;;;;;;5158628;28;20055;-77
2022/06/17 10:41:55;;;;;;;9.30;3.85;;;26.20;51.90;;;;;;5143325;28;20051;-77
2022/06/17 10:44:29;;;;;;;4.85;3.60;;;26.20;52.40;;;;;;5144922;28;20625;-73
2022/06/17 10:47:11;;;;;;;6.85;3.65;;;26.40;50.60;;;;;;5142671;28;20050;-79
2022/06/17 10:50:13;;;;;;;7.10;3.70;;;26.50;51.80;;;;;;5144755;28;20046;-77
2022/06/17 10:52:53;;;;;;;6.20;4.05;;;26.70;51.90;;;;;;5137752;28;20046;-77
2022/06/17 10:55:38;;;;;;;7.20;4.18;;;26.80;49.30;;;;;;5140061;28;20047;-79
2022/06/17 10:58:13;;;;;;;6.35;3.63;;;27.00;50.60;;;;;;5141354;28;20402;-77
2022/06/17 11:01:03;;;;;;;6.20;3.50;;;27.30;49.90;;;;;;5142462;28;20058;-77
2022/06/17 11:03:40;;;;;;;5.13;3.35;;;27.40;49.40;;;;;;5141665;28;20081;-77
2022/06/17 11:06:16;;;;;;;5.72;3.88;;;27.60;50.20;;;;;;5140628;28;20506;-78
2022/06/17 11:08:49;;;;;;;4.40;3.50;;;28.00;51.40;;;;;;5141089;28;20038;-78
2022/06/17 11:14:33;;;;;;;3.78;3.35;;;28.20;46.00;;;;;;5140200;28;20064;-78
2022/06/17 11:17:22;;;;;;;8.77;3.03;;;28.10;47.00;;;;;;5140669;28;20491;-78
2022/06/17 11:20:03;;;;;;;4.60;3.65;;;28.30;45.70;;;;;;5140321;28;20051;-77
2022/06/17 11:22:59;;;;;;;3.67;2.63;;;28.30;47.30;;;;;;5141256;28;21025;-78
2022/06/17 11:25:32;;;;;;;4.07;2.78;;;28.70;46.90;;;;;;5142696;28;20042;-76
2022/06/17 11:28:24;;;;;;;8.87;3.20;;;29.00;46.90;;;;;;5140250;28;20054;-77
2022/06/17 11:31:06;;;;;;;3.33;2.90;;;29.20;43.90;;;;;;5157042;28;20521;-78
2022/06/17 11:33:59;;;;;;;2.75;2.22;;;29.00;44.30;;;;;;5137215;28;20042;-79
2022/06/17 11:36:35;;;;;;;5.78;2.55;;;29.10;43.10;;;;;;5141225;28;20443;-76
2022/06/17 11:39:32;;;;;;;4.55;2.95;;;29.10;43.20;;;;;;5142247;28;20050;-77
2022/06/17 11:42:18;;;;;;;3.75;2.50;;;29.40;44.80;;;;;;5149309;28;20065;-77
2022/06/17 11:45:16;;;;;;;3.10;2.50;;;29.20;40.20;;;;;;5138522;28;20058;-77
2022/06/17 11:47:55;;;;;;;6.07;2.75;;;29.30;42.10;;;;;;5140532;28;20426;-77
2022/06/17 11:50:35;;;;;;;8.63;2.70;;;28.80;41.60;;;;;;5139404;28;20144;-77
2022/06/17 11:53:14;;;;;;;5.65;2.70;;;28.90;44.90;;;;;;5153699;28;20041;-77
2022/06/17 11:55:48;;;;;;;4.90;2.58;;;29.40;42.90;;;;;;5153277;28;20659;-76
2022/06/17 11:59:00;;;;;;;5.75;2.88;;;29.60;42.70;;;;;;5155614;28;20046;-77
2022/06/17 12:01:33;;;;;;;3.10;2.80;;;29.40;42.80;;;;;;5122343;28;20145;-76
2022/06/17 12:04:26;;;;;;;5.88;2.85;;;29.60;41.80;;;;;;5139016;28;20080;-77
2022/06/17 12:06:58;;;;;;;3.57;2.90;;;29.00;41.20;;;;;;5135604;28;20633;-79
2022/06/17 12:09:41;;;;;;;4.43;2.47;;;29.10;43.60;;;;;;5152787;28;20070;-77
2022/06/17 12:12:17;;;;;;;6.95;2.85;;;29.30;43.00;;;;;;5141693;28;20290;-80
2022/06/17 12:15:06;;;;;;;3.53;2.60;;;28.90;41.30;;;;;;5137896;28;20042;-77
2022/06/17 12:17:39;;;;;;;6.88;2.67;;;29.10;43.60;;;;;;5153750;28;20410;-77
2022/06/17 12:20:18;;;;;;;4.03;2.67;;;29.60;43.10;;;;;;5137897;28;20054;-77
2022/06/17 12:23:05;;;;;;;3.83;2.30;;;30.00;42.00;;;;;;5143013;28;20046;-79
2022/06/17 12:25:49;;;;;;;3.05;2.22;;;30.40;42.90;;;;;;5149665;28;20055;-80
2022/06/17 12:29:04;;;;;;;4.55;2.58;;;30.50;41.10;;;;;;5135024;28;20061;-77
2022/06/17 12:31:45;;;;;;;5.70;2.95;;;30.60;39.40;;;;;;5138836;28;20046;-78
2022/06/17 12:34:35;;;;;;;5.20;2.80;;;30.40;42.70;;;;;;5137364;28;20871;-78
2022/06/17 12:37:26;;;;;;;4.18;2.78;;;30.50;41.80;;;;;;5139046;28;20054;-75
2022/06/17 12:40:07;;;;;;;4.55;2.33;;;30.90;41.50;;;;;;5152981;28;20050;-77
2022/06/17 12:42:51;;;;;;;5.82;2.70;;;30.90;40.70;;;;;;5151799;28;20054;-80
2022/06/17 12:45:43;;;;;;;4.07;2.20;;;30.80;39.70;;;;;;5138789;28;20038;-79
2022/06/17 12:48:44;;;;;;;5.87;2.10;;;30.90;40.60;;;;;;5138830;28;20046;-77
2022/06/17 12:54:50;;;;;;;3.15;2.20;;;31.20;38.90;;;;;;5138543;28;20046;-76
2022/06/17 12:57:37;;;;;;;5.25;2.55;;;30.70;39.80;;;;;;5137664;28;20062;-78
2022/06/17 13:00:21;;;;;;;7.13;2.88;;;30.30;41.30;;;;;;5138279;28;20601;-76
2022/06/17 13:03:22;;;;;;;3.38;2.25;;;30.70;41.00;;;;;;5137377;28;20057;-77
2022/06/17 13:05:58;;;;;;;4.38;2.22;;;31.00;39.70;;;;;;5130035;28;20042;-77
2022/06/17 13:08:40;;;;;;;5.45;2.78;;;31.40;40.60;;;;;;5140699;28;20077;-77
2022/06/17 13:11:23;;;;;;;2.92;2.40;;;31.50;39.50;;;;;;5137577;28;20057;-77
2022/06/17 13:14:17;;;;;;;2.83;2.35;;;31.90;41.30;;;;;;5139735;28;20781;-77
2022/06/17 13:17:20;;;;;;;5.35;2.72;;;31.80;37.20;;;;;;5137701;28;20051;-77
2022/06/17 13:20:14;;;;;;;2.88;2.40;;;31.80;40.10;;;;;;5122781;28;20050;-76
2022/06/17 13:22:50;;;;;;;3.35;2.20;;;31.90;40.30;;;;;;5139068;28;20074;-77
2022/06/17 13:25:46;;;;;;;2.35;1.88;;;32.10;39.30;;;;;;5141511;28;20566;-78
2022/06/17 13:28:29;;;;;;;4.15;2.08;;;32.10;38.20;;;;;;5145725;28;20043;-77
2022/06/17 13:31:18;;;;;;;2.88;1.90;;;31.90;37.20;;;;;;5147496;28;20039;-78
2022/06/17 13:34:06;;;;;;;2.47;1.60;;;32.00;37.10;;;;;;5142462;28;20425;-77
2022/06/17 13:37:10;;;;;;;2.47;1.92;;;32.20;36.40;;;;;;5146657;28;20065;-79
2022/06/17 13:39:52;;;;;;;4.28;2.35;;;31.60;35.20;;;;;;5145257;28;20054;-78
2022/06/17 13:42:25;;;;;;;2.50;1.63;;;31.80;37.60;;;;;;5144613;28;20043;-76
2022/06/17 13:45:33;;;;;;;4.20;1.92;;;32.10;37.80;;;;;;5140856;28;20057;-77
2022/06/17 13:48:16;;;;;;;3.33;2.20;;;32.00;36.80;;;;;;5138538;28;20054;-76
2022/06/17 13:50:54;;;;;;;2.35;2.00;;;31.90;38.50;;;;;;5142197;28;20093;-77
2022/06/17 13:53:42;;;;;;;6.07;2.00;;;31.90;38.90;;;;;;5138771;28;20050;-77
2022/06/17 13:56:33;;;;;;;3.33;2.30;;;31.90;38.10;;;;;;5141086;28;20045;-77
2022/06/17 13:59:33;;;;;;;2.25;2.00;;;31.90;36.60;;;;;;5141321;28;20046;-77
2022/06/17 14:02:30;;;;;;;5.70;2.10;;;31.70;37.30;;;;;;5148025;28;20082;-77
2022/06/17 14:05:12;;;;;;;2.28;1.90;;;31.80;37.20;;;;;;5151080;28;20050;-77
2022/06/17 14:07:54;;;;;;;6.25;2.03;;;31.80;38.10;;;;;;5142261;28;20043;-77
2022/06/17 14:11:32;;;;;;;2.58;1.92;;;31.60;37.30;;;;;;5142608;28;20057;-78
2022/06/17 14:14:19;;;;;;;3.95;2.13;;;31.50;38.30;;;;;;5139653;28;20620;-77